FFT3550 KSFO-KPHX
Flight info
| Callsign | FFT3550 |
|---|---|
| Flight time | N/A |
| Altitude | 39000 |
| Route | WESLA5 KAYEX LOSHN BOILE BLH HYDRR1 |
| Aircraft | A20N/M-SDE2E3FGHIRWXY/LB1 |
Departure
| Time | N/A |
|---|---|
| Airport | San Francisco International Airport (KSFO) |
Arrival
| Time | 2026-05-05 22:43 |
|---|---|
| Airport | Phoenix Sky Harbor International Airport (KPHX) |
| Time | Latitude | Longitude | Altitude | Speed | Heading |
|---|---|---|---|---|---|
| 2026-05-05 22:24 | 33.28376 | -113.13914 | 19484 ft | 407 kts | 101° |
| 2026-05-05 22:24 | 33.27927 | -113.10639 | 19334 ft | 392 kts | 102° |
| 2026-05-05 22:25 | 33.27525 | -113.07466 | 18898 ft | 383 kts | 98° |
| 2026-05-05 22:25 | 33.27483 | -113.04311 | 18503 ft | 377 kts | 90° |
| 2026-05-05 22:25 | 33.27583 | -113.01185 | 18249 ft | 377 kts | 90° |
| 2026-05-05 22:25 | 33.27663 | -112.98069 | 17892 ft | 373 kts | 90° |
| 2026-05-05 22:26 | 33.27736 | -112.95000 | 17553 ft | 367 kts | 90° |
| 2026-05-05 22:26 | 33.27807 | -112.91957 | 17225 ft | 367 kts | 91° |
| 2026-05-05 22:26 | 33.27861 | -112.88923 | 17033 ft | 361 kts | 91° |
| 2026-05-05 22:26 | 33.27927 | -112.85968 | 16846 ft | 352 kts | 90° |
| 2026-05-05 22:27 | 33.28002 | -112.83060 | 16449 ft | 349 kts | 90° |
| 2026-05-05 22:27 | 33.28213 | -112.80179 | 16072 ft | 346 kts | 85° |
| 2026-05-05 22:27 | 33.28497 | -112.77345 | 15756 ft | 341 kts | 85° |
| 2026-05-05 22:27 | 33.28772 | -112.74545 | 15454 ft | 341 kts | 85° |
| 2026-05-05 22:28 | 33.29041 | -112.71718 | 15141 ft | 341 kts | 86° |
| 2026-05-05 22:28 | 33.29305 | -112.68922 | 14848 ft | 336 kts | 86° |
| 2026-05-05 22:28 | 33.29559 | -112.66192 | 14740 ft | 325 kts | 86° |
| 2026-05-05 22:28 | 33.29805 | -112.63553 | 14644 ft | 313 kts | 86° |
| 2026-05-05 22:29 | 33.30041 | -112.61017 | 14528 ft | 301 kts | 86° |
| 2026-05-05 22:29 | 33.30270 | -112.58554 | 14278 ft | 296 kts | 86° |
| 2026-05-05 22:29 | 33.30495 | -112.56115 | 13952 ft | 295 kts | 86° |
| 2026-05-05 22:29 | 33.30718 | -112.53686 | 13675 ft | 293 kts | 86° |
| 2026-05-05 22:30 | 33.30940 | -112.51273 | 13383 ft | 291 kts | 86° |
| 2026-05-05 22:30 | 33.31158 | -112.48904 | 13079 ft | 289 kts | 86° |
| 2026-05-05 22:30 | 33.31382 | -112.46498 | 12671 ft | 286 kts | 86° |
| 2026-05-05 22:30 | 33.31601 | -112.44151 | 12141 ft | 284 kts | 86° |
| 2026-05-05 22:31 | 33.31816 | -112.41835 | 11869 ft | 281 kts | 86° |
| 2026-05-05 22:31 | 33.32028 | -112.39492 | 11617 ft | 283 kts | 86° |
| 2026-05-05 22:31 | 33.32237 | -112.37164 | 11361 ft | 280 kts | 86° |
| 2026-05-05 22:31 | 33.32442 | -112.34890 | 11118 ft | 279 kts | 86° |
| 2026-05-05 22:32 | 33.32649 | -112.32582 | 10863 ft | 277 kts | 85° |
| 2026-05-05 22:32 | 33.32857 | -112.30295 | 10618 ft | 277 kts | 85° |
| 2026-05-05 22:32 | 33.33066 | -112.27998 | 10375 ft | 277 kts | 85° |
| 2026-05-05 22:32 | 33.33273 | -112.25738 | 10144 ft | 276 kts | 85° |
| 2026-05-05 22:33 | 33.33479 | -112.23459 | 9903 ft | 275 kts | 85° |
| 2026-05-05 22:33 | 33.33685 | -112.21198 | 9640 ft | 273 kts | 85° |
| 2026-05-05 22:33 | 33.33891 | -112.18960 | 9375 ft | 269 kts | 84° |
| 2026-05-05 22:33 | 33.34091 | -112.16765 | 9085 ft | 262 kts | 85° |
| 2026-05-05 22:34 | 33.34286 | -112.14624 | 8820 ft | 256 kts | 85° |
| 2026-05-05 22:34 | 33.34475 | -112.12506 | 8568 ft | 257 kts | 85° |
| 2026-05-05 22:34 | 33.34665 | -112.10404 | 8312 ft | 251 kts | 86° |
| 2026-05-05 22:34 | 33.34767 | -112.08325 | 8058 ft | 252 kts | 94° |
| 2026-05-05 22:35 | 33.34727 | -112.06249 | 7799 ft | 246 kts | 93° |
| 2026-05-05 22:35 | 33.34724 | -112.04251 | 7538 ft | 235 kts | 92° |
| 2026-05-05 22:35 | 33.34742 | -112.02288 | 7301 ft | 239 kts | 91° |
| 2026-05-05 22:35 | 33.34755 | -112.00315 | 7046 ft | 236 kts | 92° |
| 2026-05-05 22:36 | 33.34770 | -111.98340 | 6753 ft | 236 kts | 91° |
| 2026-05-05 22:36 | 33.34776 | -111.96433 | 6486 ft | 223 kts | 91° |
| 2026-05-05 22:36 | 33.34785 | -111.94612 | 6108 ft | 216 kts | 92° |
| 2026-05-05 22:36 | 33.34801 | -111.92846 | 5727 ft | 210 kts | 91° |
| 2026-05-05 22:37 | 33.34819 | -111.91109 | 5373 ft | 207 kts | 91° |
| 2026-05-05 22:37 | 33.34833 | -111.89409 | 5010 ft | 201 kts | 91° |
| 2026-05-05 22:37 | 33.34840 | -111.87757 | 4639 ft | 197 kts | 92° |
| 2026-05-05 22:37 | 33.35042 | -111.86166 | 4240 ft | 195 kts | 63° |
| 2026-05-05 22:38 | 33.35944 | -111.85057 | 3902 ft | 181 kts | 21° |
| 2026-05-05 22:38 | 33.37086 | -111.84640 | 3545 ft | 167 kts | 9° |
| 2026-05-05 22:38 | 33.38195 | -111.84302 | 3180 ft | 162 kts | 9° |
| 2026-05-05 22:38 | 33.39257 | -111.84062 | 3029 ft | 156 kts | 359° |
| 2026-05-05 22:39 | 33.40331 | -111.83969 | 3005 ft | 153 kts | 358° |
| 2026-05-05 22:39 | 33.41410 | -111.83935 | 3020 ft | 152 kts | 347° |
| 2026-05-05 22:39 | 33.42345 | -111.84371 | 3158 ft | 148 kts | 317° |
| 2026-05-05 22:39 | 33.42899 | -111.85361 | 3038 ft | 145 kts | 283° |
| 2026-05-05 22:40 | 33.42993 | -111.86486 | 2857 ft | 131 kts | 268° |
| 2026-05-05 22:40 | 33.42975 | -111.87601 | 2725 ft | 135 kts | 264° |
| 2026-05-05 22:40 | 33.42870 | -111.88733 | 2607 ft | 137 kts | 262° |
| 2026-05-05 22:40 | 33.42804 | -111.89856 | 2510 ft | 135 kts | 267° |
| 2026-05-05 22:41 | 33.42803 | -111.90952 | 2466 ft | 130 kts | 267° |
| 2026-05-05 22:41 | 33.42812 | -111.92038 | 2341 ft | 131 kts | 269° |
| 2026-05-05 22:41 | 33.42831 | -111.93118 | 2271 ft | 130 kts | 269° |
| 2026-05-05 22:41 | 33.42866 | -111.94205 | 2197 ft | 131 kts | 270° |
| 2026-05-05 22:42 | 33.42861 | -111.95277 | 1992 ft | 126 kts | 268° |
| 2026-05-05 22:42 | 33.42868 | -111.96328 | 1788 ft | 126 kts | 268° |
| 2026-05-05 22:42 | 33.42867 | -111.97379 | 1617 ft | 130 kts | 268° |
| 2026-05-05 22:42 | 33.42884 | -111.98491 | 1423 ft | 131 kts | 268° |
| 2026-05-05 22:43 | 33.42893 | -111.99555 | 1230 ft | 130 kts | 266° |
| 2026-05-05 22:43 | 33.42887 | -112.00641 | 1133 ft | 125 kts | 267° |
| 2026-05-05 22:43 | 33.42885 | -112.01435 | 1126 ft | 41 kts | 270° |
| 2026-05-05 22:43 | 33.42891 | -112.01617 | 1116 ft | 16 kts | 302° |
| 2026-05-05 22:44 | 33.42989 | -112.01641 | 1122 ft | 13 kts | 40° |
| 2026-05-05 22:44 | 33.43020 | -112.01609 | 1120 ft | 6 kts | 41° |
| 2026-05-05 22:44 | 33.43099 | -112.01568 | 1116 ft | 18 kts | 2° |
| 2026-05-05 22:44 | 33.43158 | -112.01565 | 1118 ft | 4 kts | 3° |
| 2026-05-05 22:45 | 33.43226 | -112.01522 | 1120 ft | 15 kts | 36° |
| 2026-05-05 22:45 | 33.43289 | -112.01425 | 1120 ft | 17 kts | 81° |
| 2026-05-05 22:45 | 33.43289 | -112.01282 | 1116 ft | 17 kts | 87° |
| 2026-05-05 22:45 | 33.43291 | -112.01125 | 1116 ft | 20 kts | 91° |
| 2026-05-05 22:46 | 33.43317 | -112.01041 | 1124 ft | 11 kts | 53° |
| 2026-05-05 22:46 | 33.43353 | -112.00978 | 1113 ft | 6 kts | 31° |
| 2026-05-05 22:46 | 33.43380 | -112.00974 | 1118 ft | 4 kts | 2° |
| 2026-05-05 22:46 | 33.43396 | -112.00974 | 1118 ft | 0 kts | 1° |